createdAt,value
2017-10-16T00:07:03.000Z,21.49
2017-10-16T00:17:03.000Z,21.48
2017-10-16T00:27:03.000Z,21.44
2017-10-16T00:37:03.000Z,21.42
2017-10-16T00:47:03.000Z,21.39
2017-10-16T00:57:03.000Z,21.36
2017-10-16T01:07:03.000Z,21.35
2017-10-16T01:17:03.000Z,21.32
2017-10-16T01:27:03.000Z,21.3
2017-10-16T01:37:03.000Z,21.28
2017-10-16T01:47:03.000Z,21.26
2017-10-16T01:57:03.000Z,21.25
2017-10-16T02:07:04.000Z,21.23
2017-10-16T02:17:03.000Z,21.21
2017-10-16T02:27:03.000Z,21.19
2017-10-16T02:37:03.000Z,21.17
2017-10-16T02:47:03.000Z,21.13
2017-10-16T02:57:04.000Z,21.11
2017-10-16T03:07:03.000Z,21.09
2017-10-16T03:17:03.000Z,21.08
2017-10-16T03:27:03.000Z,21.08
2017-10-16T03:37:03.000Z,21.06
2017-10-16T03:47:03.000Z,21.04
2017-10-16T03:57:03.000Z,21.02
2017-10-16T04:07:03.000Z,21.01
2017-10-16T04:17:03.000Z,21
2017-10-16T04:27:04.000Z,20.98
2017-10-16T04:37:04.000Z,20.96
2017-10-16T04:47:04.000Z,20.94
2017-10-16T04:57:04.000Z,20.94
2017-10-16T05:07:04.000Z,20.93
2017-10-16T05:17:04.000Z,20.92
2017-10-16T05:27:04.000Z,20.9
2017-10-16T05:37:04.000Z,20.89
2017-10-16T05:47:04.000Z,20.87
2017-10-16T05:57:04.000Z,20.86
2017-10-16T06:07:04.000Z,20.86
2017-10-16T06:17:04.000Z,20.86
2017-10-16T06:27:04.000Z,20.84
2017-10-16T06:37:04.000Z,20.83
2017-10-16T06:47:04.000Z,20.84
2017-10-16T06:57:04.000Z,20.82
2017-10-16T07:07:04.000Z,20.84
2017-10-16T07:17:04.000Z,20.84
2017-10-16T07:27:04.000Z,20.83
2017-10-16T07:37:04.000Z,20.85
2017-10-16T07:47:04.000Z,20.98
2017-10-16T07:57:04.000Z,20.96
2017-10-16T08:07:04.000Z,21.01
2017-10-16T08:17:04.000Z,21.07
2017-10-16T08:27:04.000Z,21.11
2017-10-16T08:37:04.000Z,21.21
2017-10-16T08:47:04.000Z,21.26
2017-10-16T08:57:04.000Z,21.33
2017-10-16T09:07:04.000Z,21.48
2017-10-16T09:17:04.000Z,21.58
2017-10-16T09:27:04.000Z,21.71
2017-10-16T09:37:04.000Z,21.83
2017-10-16T09:47:04.000Z,22
2017-10-16T09:57:04.000Z,22.19
2017-10-16T10:07:04.000Z,22.37
2017-10-16T10:17:04.000Z,22.57
2017-10-16T10:27:04.000Z,22.7
2017-10-16T10:37:04.000Z,22.85
2017-10-16T10:47:04.000Z,22.88
2017-10-16T10:57:04.000Z,23.01
2017-10-16T11:07:04.000Z,23.09
2017-10-16T11:17:04.000Z,23.13
2017-10-16T11:27:04.000Z,23.11
2017-10-16T11:37:04.000Z,23.09
2017-10-16T11:47:04.000Z,23.11
2017-10-16T11:57:04.000Z,23.12
2017-10-16T12:07:04.000Z,23.16
2017-10-16T12:17:04.000Z,23.18
2017-10-16T12:27:04.000Z,23.15
2017-10-16T12:37:04.000Z,23.19
2017-10-16T12:47:04.000Z,23.23
2017-10-16T12:57:04.000Z,23.23
2017-10-16T13:07:05.000Z,23.23
2017-10-16T13:17:05.000Z,23.23
2017-10-16T13:27:05.000Z,23.24
2017-10-16T13:37:05.000Z,23.24
2017-10-16T13:47:05.000Z,23.24
2017-10-16T13:57:05.000Z,23.29
2017-10-16T14:07:05.000Z,23.28
2017-10-16T14:17:06.000Z,23.29
2017-10-16T14:27:05.000Z,23.31
2017-10-16T14:37:05.000Z,23.28
2017-10-16T14:47:05.000Z,23.28
2017-10-16T14:57:05.000Z,23.29
2017-10-16T15:07:05.000Z,23.25
2017-10-16T15:17:05.000Z,23.25
2017-10-16T15:27:05.000Z,23.26
2017-10-16T15:37:05.000Z,23.28
2017-10-16T15:47:05.000Z,23.29
2017-10-16T15:57:05.000Z,23.3
2017-10-16T16:07:05.000Z,23.32
2017-10-16T16:17:05.000Z,23.3
2017-10-16T16:27:05.000Z,23.32
2017-10-16T16:37:05.000Z,23.31
2017-10-16T16:47:05.000Z,23.33
2017-10-16T16:57:05.000Z,23.3
2017-10-16T17:07:05.000Z,23.28
2017-10-16T17:17:05.000Z,23.24
2017-10-16T17:27:05.000Z,23.22
2017-10-16T17:37:05.000Z,23.16
2017-10-16T17:47:05.000Z,23.08
2017-10-16T17:57:05.000Z,23.06
2017-10-16T18:07:05.000Z,22.99
2017-10-16T18:17:05.000Z,22.99
2017-10-16T18:27:06.000Z,22.97
2017-10-16T18:37:05.000Z,22.96
2017-10-16T18:47:05.000Z,22.91
2017-10-16T18:57:05.000Z,22.89
2017-10-16T19:07:06.000Z,22.85
2017-10-16T19:17:05.000Z,22.77
2017-10-16T19:27:06.000Z,22.79
2017-10-16T19:37:05.000Z,22.74
2017-10-16T19:47:06.000Z,22.71
2017-10-16T19:57:07.000Z,22.51
2017-10-16T20:07:05.000Z,22.62
2017-10-16T20:17:09.000Z,22.57
2017-10-16T20:27:08.000Z,22.58
2017-10-16T20:37:05.000Z,22.57
2017-10-16T20:47:05.000Z,22.54
2017-10-16T20:57:05.000Z,22.51
2017-10-16T21:07:05.000Z,22.47
2017-10-16T21:17:05.000Z,22.45
2017-10-16T21:37:06.000Z,22.36
2017-10-16T21:47:06.000Z,22.33
2017-10-16T21:57:07.000Z,22.29
2017-10-16T22:07:06.000Z,22.25
2017-10-16T22:17:06.000Z,22.21
2017-10-16T22:27:06.000Z,22.18
2017-10-16T22:37:06.000Z,22.15
2017-10-16T22:47:06.000Z,22.13
2017-10-16T22:57:06.000Z,22.08
2017-10-16T23:07:06.000Z,22.04
2017-10-16T23:17:06.000Z,22.02
2017-10-16T23:27:06.000Z,21.99
2017-10-16T23:37:06.000Z,21.99
2017-10-16T23:47:06.000Z,21.97
2017-10-16T23:57:06.000Z,21.94
